Time;durP1;ratioP1;P1;durP2;ratioP2;P2;SDS_P1;SDS_P2;PMS_P1;PMS_P2;Temp;Humidity;BMP_temperature;BMP_pressure;BME280_temperature;BME280_humidity;BME280_pressure;Samples;Min_cycle;Max_cycle;Signal;HPM_P1;HPM_P2
2023/09/01 00:01:12;;;;;;;4.57;3.13;;;;;;;;;;5074473;28;20714;-84
2023/09/01 00:03:38;;;;;;;4.33;2.77;;;;;;;;;;5073136;28;20177;-84
2023/09/01 00:06:11;;;;;;;5.30;2.80;;;;;;;;;;5075866;28;20251;-85
2023/09/01 00:08:37;;;;;;;3.10;2.80;;;;;;;;;;5058503;28;20540;-84
2023/09/01 00:11:03;;;;;;;4.03;2.97;;;;;;;;;;5076692;28;20172;-84
2023/09/01 00:13:29;;;;;;;4.23;2.90;;;;;;;;;;5076501;28;20170;-85
2023/09/01 00:15:55;;;;;;;3.60;2.63;;;;;;;;;;5074571;28;20164;-86
2023/09/01 00:18:21;;;;;;;3.07;2.77;;;;;;;;;;5075372;28;20275;-85
2023/09/01 00:20:47;;;;;;;3.13;2.50;;;;;;;;;;5075033;28;20672;-83
2023/09/01 00:23:13;;;;;;;3.63;2.90;;;;;;;;;;5075647;28;20250;-85
2023/09/01 00:25:39;;;;;;;3.03;2.83;;;;;;;;;;5058054;28;20180;-84
2023/09/01 00:28:06;;;;;;;3.60;2.83;;;;;;;;;;5076165;28;20216;-84
2023/09/01 00:30:32;;;;;;;3.33;2.60;;;;;;;;;;5073685;28;20181;-84
2023/09/01 00:32:58;;;;;;;4.00;2.50;;;;;;;;;;5056002;28;20268;-85
2023/09/01 00:35:24;;;;;;;3.77;3.37;;;;;;;;;;5057796;28;20226;-86
2023/09/01 00:37:51;;;;;;;3.23;2.73;;;;;;;;;;5059884;28;20168;-85
2023/09/01 00:40:17;;;;;;;4.13;2.90;;;;;;;;;;5076800;28;20515;-85
2023/09/01 00:42:43;;;;;;;4.27;2.67;;;;;;;;;;5074527;28;20187;-84
2023/09/01 00:45:09;;;;;;;3.30;2.73;;;;;;;;;;5055926;28;20264;-85
2023/09/01 00:47:35;;;;;;;3.23;2.93;;;;;;;;;;5050009;28;20229;-85
2023/09/01 00:50:07;;;;;;;3.43;2.40;;;;;;;;;;5074721;28;20177;-85
2023/09/01 00:52:34;;;;;;;4.13;3.00;;;;;;;;;;5056329;28;20240;-85
2023/09/01 00:55:00;;;;;;;5.27;3.30;;;;;;;;;;5074505;28;20215;-85
2023/09/01 00:57:26;;;;;;;3.63;2.83;;;;;;;;;;5074920;28;20682;-85
2023/09/01 00:59:52;;;;;;;5.57;3.53;;;;;;;;;;5075765;28;20173;-84
2023/09/01 01:02:18;;;;;;;4.07;3.50;;;;;;;;;;5052989;28;20250;-85
2023/09/01 01:04:44;;;;;;;3.90;2.67;;;;;;;;;;5038278;28;20639;-85
2023/09/01 01:07:23;;;;;;;6.10;3.13;;;;;;;;;;5074875;28;20222;-85
2023/09/01 01:09:49;;;;;;;3.70;3.40;;;;;;;;;;5050419;28;20196;-84
2023/09/01 01:12:15;;;;;;;3.97;3.50;;;;;;;;;;5072802;28;20178;-84
2023/09/01 01:14:48;;;;;;;3.40;3.10;;;;;;;;;;5076182;28;20173;-85
2023/09/01 01:17:15;;;;;;;4.57;3.00;;;;;;;;;;5069008;28;20905;-83
2023/09/01 01:19:52;;;;;;;4.83;3.20;;;;;;;;;;5074040;28;20529;-85
2023/09/01 01:22:20;;;;;;;3.67;3.20;;;;;;;;;;5049497;28;20660;-85
2023/09/01 01:24:46;;;;;;;4.37;2.97;;;;;;;;;;5057094;28;20212;-84
2023/09/01 01:27:16;;;;;;;3.80;3.33;;;;;;;;;;5068868;28;20750;-85
2023/09/01 01:29:42;;;;;;;3.10;2.90;;;;;;;;;;5074962;28;20302;-85
2023/09/01 01:32:08;;;;;;;3.53;3.23;;;;;;;;;;5072479;28;20208;-84
2023/09/01 01:34:38;;;;;;;3.10;2.70;;;;;;;;;;5037190;28;20178;-85
2023/09/01 01:37:24;;;;;;;3.77;3.23;;;;;;;;;;5069761;28;20188;-84
2023/09/01 01:39:51;;;;;;;5.27;2.97;;;;;;;;;;5074443;28;20644;-85
2023/09/01 01:42:18;;;;;;;4.57;3.03;;;;;;;;;;5075012;28;20180;-85
2023/09/01 01:44:48;;;;;;;6.60;3.90;;;;;;;;;;5058857;28;20543;-85
2023/09/01 01:47:14;;;;;;;4.50;3.30;;;;;;;;;;5074158;28;20189;-84
2023/09/01 01:49:40;;;;;;;4.23;3.70;;;;;;;;;;5077328;28;20204;-84
2023/09/01 01:52:06;;;;;;;3.20;2.90;;;;;;;;;;5062825;28;20242;-85
2023/09/01 01:54:33;;;;;;;3.63;3.10;;;;;;;;;;5073418;28;20533;-84
2023/09/01 01:56:59;;;;;;;3.33;3.13;;;;;;;;;;5072906;28;20192;-84
2023/09/01 01:59:25;;;;;;;7.70;3.57;;;;;;;;;;5073938;28;20265;-84
2023/09/01 02:01:51;;;;;;;5.23;4.73;;;;;;;;;;5072076;28;20216;-84
2023/09/01 02:04:17;;;;;;;3.37;3.03;;;;;;;;;;5074341;28;20168;-85
2023/09/01 02:06:43;;;;;;;5.23;3.57;;;;;;;;;;5068530;28;20219;-85
2023/09/01 02:09:09;;;;;;;4.47;3.00;;;;;;;;;;5068510;28;20667;-84
2023/09/01 02:11:38;;;;;;;4.00;2.87;;;;;;;;;;5078429;28;20183;-86
2023/09/01 02:14:05;;;;;;;5.10;3.20;;;;;;;;;;5080758;28;20180;-85
2023/09/01 02:16:31;;;;;;;3.43;3.13;;;;;;;;;;5079613;28;20184;-85
2023/09/01 02:19:00;;;;;;;5.63;3.43;;;;;;;;;;5080090;28;20176;-85
2023/09/01 02:21:26;;;;;;;4.43;3.23;;;;;;;;;;5081295;28;20184;-85
2023/09/01 02:23:52;;;;;;;4.57;3.13;;;;;;;;;;5082250;28;20545;-86
2023/09/01 02:26:22;;;;;;;3.87;3.27;;;;;;;;;;5079965;28;20195;-85
2023/09/01 02:28:48;;;;;;;4.20;3.23;;;;;;;;;;5082550;28;20269;-85
2023/09/01 02:31:14;;;;;;;3.90;3.30;;;;;;;;;;5076694;28;20701;-85
2023/09/01 02:33:41;;;;;;;3.47;2.90;;;;;;;;;;5082080;28;20263;-86
2023/09/01 02:36:23;;;;;;;3.10;2.80;;;;;;;;;;5082388;28;20180;-85
2023/09/01 02:38:49;;;;;;;3.83;3.07;;;;;;;;;;5082111;28;20184;-86
2023/09/01 02:41:15;;;;;;;5.37;3.67;;;;;;;;;;5080048;28;20188;-84
2023/09/01 02:43:41;;;;;;;3.47;2.90;;;;;;;;;;5080805;28;20169;-86
2023/09/01 02:46:07;;;;;;;3.53;3.07;;;;;;;;;;5079234;28;20647;-85
2023/09/01 02:48:33;;;;;;;6.47;3.43;;;;;;;;;;5078614;28;20204;-86
2023/09/01 02:50:59;;;;;;;4.63;3.00;;;;;;;;;;5078813;28;20648;-85
2023/09/01 02:53:25;;;;;;;4.27;3.40;;;;;;;;;;5062703;28;20172;-85
2023/09/01 02:55:51;;;;;;;3.60;2.97;;;;;;;;;;5078765;28;20490;-86
2023/09/01 02:58:17;;;;;;;4.67;3.07;;;;;;;;;;5084766;28;20249;-85
2023/09/01 03:00:44;;;;;;;2.80;2.60;;;;;;;;;;5087285;28;20163;-86
2023/09/01 03:03:10;;;;;;;5.53;3.53;;;;;;;;;;5069553;28;20172;-86
2023/09/01 03:05:36;;;;;;;3.60;2.93;;;;;;;;;;5081074;28;20325;-85
2023/09/01 03:08:03;;;;;;;4.13;2.90;;;;;;;;;;5075281;28;20608;-85
2023/09/01 03:10:29;;;;;;;5.20;3.07;;;;;;;;;;5081127;28;20256;-86
2023/09/01 03:12:55;;;;;;;3.20;2.87;;;;;;;;;;5080575;28;20184;-85
2023/09/01 03:15:22;;;;;;;3.00;2.70;;;;;;;;;;5087942;28;20276;-85
2023/09/01 03:17:48;;;;;;;4.27;3.00;;;;;;;;;;5081147;28;20176;-85
2023/09/01 03:20:14;;;;;;;4.77;3.43;;;;;;;;;;5081937;28;20257;-85
2023/09/01 03:22:40;;;;;;;2.90;2.60;;;;;;;;;;5076639;28;20188;-85
2023/09/01 03:25:09;;;;;;;3.27;2.57;;;;;;;;;;5078365;28;20188;-86
2023/09/01 03:27:38;;;;;;;3.90;2.80;;;;;;;;;;5076986;28;20179;-85
2023/09/01 03:30:05;;;;;;;4.47;2.90;;;;;;;;;;5077156;28;20179;-84
2023/09/01 03:32:31;;;;;;;4.43;3.23;;;;;;;;;;5076355;28;20180;-85
2023/09/01 03:34:57;;;;;;;4.10;3.13;;;;;;;;;;5072562;28;20180;-85
2023/09/01 03:37:25;;;;;;;3.27;2.90;;;;;;;;;;5075381;28;20181;-85
2023/09/01 03:39:51;;;;;;;3.60;2.63;;;;;;;;;;5076569;28;20192;-85
2023/09/01 03:42:17;;;;;;;3.50;2.53;;;;;;;;;;5076662;28;20518;-85
2023/09/01 03:44:43;;;;;;;4.20;2.93;;;;;;;;;;5078140;28;20532;-85
2023/09/01 03:47:10;;;;;;;5.37;3.13;;;;;;;;;;5076912;28;20256;-86
2023/09/01 03:49:36;;;;;;;3.27;2.80;;;;;;;;;;5063565;28;20523;-86
2023/09/01 03:52:03;;;;;;;5.57;3.20;;;;;;;;;;5077386;28;20185;-84
2023/09/01 03:54:29;;;;;;;3.03;2.73;;;;;;;;;;5077556;28;20164;-85
2023/09/01 03:56:55;;;;;;;6.03;3.37;;;;;;;;;;5066673;28;20173;-85
2023/09/01 03:59:21;;;;;;;3.30;2.63;;;;;;;;;;5071274;28;20172;-85
2023/09/01 04:01:48;;;;;;;6.47;2.97;;;;;;;;;;5076679;28;20169;-83
2023/09/01 04:04:14;;;;;;;3.13;2.83;;;;;;;;;;5077918;28;20183;-83
2023/09/01 04:06:40;;;;;;;5.87;3.40;;;;;;;;;;5072109;28;20259;-85
2023/09/01 04:09:08;;;;;;;3.73;3.20;;;;;;;;;;5076824;28;20628;-83
2023/09/01 04:11:34;;;;;;;3.00;2.70;;;;;;;;;;5076148;28;20633;-84
2023/09/01 04:14:00;;;;;;;3.03;2.73;;;;;;;;;;5073462;28;20243;-84
2023/09/01 04:16:26;;;;;;;5.20;2.93;;;;;;;;;;5076159;28;20181;-86
2023/09/01 04:18:52;;;;;;;5.53;2.90;;;;;;;;;;5077762;28;20222;-84
2023/09/01 04:21:18;;;;;;;3.63;2.83;;;;;;;;;;5069832;28;20189;-85
2023/09/01 04:23:44;;;;;;;3.27;2.97;;;;;;;;;;5060968;28;20184;-85
2023/09/01 04:26:10;;;;;;;3.03;2.83;;;;;;;;;;5077128;28;20750;-85
2023/09/01 04:28:36;;;;;;;3.00;2.70;;;;;;;;;;5077238;28;20204;-83
2023/09/01 04:31:03;;;;;;;3.37;2.33;;;;;;;;;;5074164;28;20195;-85
2023/09/01 04:33:30;;;;;;;2.80;2.50;;;;;;;;;;5077642;28;20203;-85
2023/09/01 04:35:56;;;;;;;2.87;2.50;;;;;;;;;;5077041;28;20234;-85
2023/09/01 04:38:22;;;;;;;3.00;2.70;;;;;;;;;;5077754;28;20173;-85
2023/09/01 04:40:55;;;;;;;3.70;2.70;;;;;;;;;;5075446;28;20181;-85
2023/09/01 04:43:22;;;;;;;2.43;2.23;;;;;;;;;;5077834;28;20279;-86
2023/09/01 04:45:48;;;;;;;4.37;2.57;;;;;;;;;;5075106;28;20275;-86
2023/09/01 04:48:14;;;;;;;2.97;2.40;;;;;;;;;;5075674;28;20205;-85
2023/09/01 04:50:40;;;;;;;5.87;2.97;;;;;;;;;;5073192;28;20233;-85
2023/09/01 04:53:06;;;;;;;3.83;2.50;;;;;;;;;;5077096;28;20182;-85
2023/09/01 04:55:32;;;;;;;3.23;2.40;;;;;;;;;;5076915;28;20188;-85
2023/09/01 04:57:58;;;;;;;3.77;3.10;;;;;;;;;;5074561;28;20437;-81
2023/09/01 05:00:24;;;;;;;3.00;2.60;;;;;;;;;;5077499;28;20166;-85
2023/09/01 05:02:50;;;;;;;2.53;2.30;;;;;;;;;;5075830;28;20684;-87
2023/09/01 05:05:16;;;;;;;3.33;2.37;;;;;;;;;;5077648;28;20232;-87
2023/09/01 05:07:42;;;;;;;2.87;2.57;;;;;;;;;;5077522;28;20185;-90
2023/09/01 05:10:08;;;;;;;4.80;3.00;;;;;;;;;;5078104;28;20227;-83
2023/09/01 05:12:35;;;;;;;2.60;2.40;;;;;;;;;;5076243;28;20175;-85
2023/09/01 05:15:01;;;;;;;4.70;2.80;;;;;;;;;;5076105;28;20165;-85
2023/09/01 05:17:28;;;;;;;4.20;2.77;;;;;;;;;;5057934;28;20191;-86
2023/09/01 05:19:54;;;;;;;2.90;2.60;;;;;;;;;;5076322;28;20665;-85
2023/09/01 05:22:20;;;;;;;3.37;2.93;;;;;;;;;;5055684;28;20181;-84
2023/09/01 05:24:49;;;;;;;3.70;2.77;;;;;;;;;;5056407;28;20184;-87
2023/09/01 05:27:21;;;;;;;5.47;2.60;;;;;;;;;;5076818;28;20169;-85
2023/09/01 05:29:47;;;;;;;3.47;2.60;;;;;;;;;;5075304;28;20211;-84
2023/09/01 05:32:13;;;;;;;4.10;3.57;;;;;;;;;;5075522;28;20178;-83
2023/09/01 05:34:40;;;;;;;2.50;2.20;;;;;;;;;;5061625;28;20164;-83
2023/09/01 05:37:07;;;;;;;2.70;2.50;;;;;;;;;;5054552;28;20185;-82
2023/09/01 05:39:33;;;;;;;3.40;2.50;;;;;;;;;;5076682;28;20199;-84
2023/09/01 05:41:59;;;;;;;3.03;2.70;;;;;;;;;;5074072;28;20582;-84
2023/09/01 05:44:25;;;;;;;3.07;2.67;;;;;;;;;;5075417;28;20204;-84
2023/09/01 05:46:51;;;;;;;2.67;2.47;;;;;;;;;;5057829;28;20219;-84
2023/09/01 05:49:18;;;;;;;2.47;2.30;;;;;;;;;;5076871;28;20196;-83
2023/09/01 05:51:44;;;;;;;2.90;2.67;;;;;;;;;;5073092;28;20518;-82
2023/09/01 05:54:10;;;;;;;3.53;2.60;;;;;;;;;;5052952;28;20189;-83
2023/09/01 05:56:36;;;;;;;6.97;2.60;;;;;;;;;;5076008;28;20187;-82
2023/09/01 05:59:02;;;;;;;2.53;2.33;;;;;;;;;;5076552;28;20173;-82
2023/09/01 06:01:32;;;;;;;3.00;2.50;;;;;;;;;;5075650;28;20575;-83
2023/09/01 06:03:59;;;;;;;3.53;2.23;;;;;;;;;;5076739;28;20176;-83
2023/09/01 06:06:25;;;;;;;3.50;2.40;;;;;;;;;;5075751;28;20250;-83
2023/09/01 06:08:51;;;;;;;2.67;2.33;;;;;;;;;;5075979;28;20200;-83
2023/09/01 06:11:17;;;;;;;4.33;2.70;;;;;;;;;;5057607;28;20195;-83
2023/09/01 06:13:43;;;;;;;2.93;2.40;;;;;;;;;;5071312;28;20990;-85
2023/09/01 06:16:10;;;;;;;3.77;2.50;;;;;;;;;;5063036;28;20222;-83
2023/09/01 06:18:36;;;;;;;3.60;2.50;;;;;;;;;;5076857;28;20707;-84
2023/09/01 06:21:02;;;;;;;3.63;3.00;;;;;;;;;;5074495;28;20208;-83
2023/09/01 06:23:28;;;;;;;3.70;2.73;;;;;;;;;;5054591;28;20184;-84
2023/09/01 06:25:54;;;;;;;3.13;2.70;;;;;;;;;;5077817;28;20169;-83
2023/09/01 06:28:20;;;;;;;2.50;2.30;;;;;;;;;;5065289;28;20215;-84
2023/09/01 06:30:46;;;;;;;3.03;2.50;;;;;;;;;;5075291;28;20191;-87
2023/09/01 06:33:12;;;;;;;3.37;2.70;;;;;;;;;;5076180;28;20161;-84
2023/09/01 06:35:38;;;;;;;3.80;2.50;;;;;;;;;;5075643;28;20184;-84
2023/09/01 06:38:07;;;;;;;3.60;2.63;;;;;;;;;;5078606;28;20180;-83
2023/09/01 06:40:33;;;;;;;2.70;2.40;;;;;;;;;;5076525;28;20218;-85
2023/09/01 06:42:59;;;;;;;2.07;1.90;;;;;;;;;;5076125;28;20578;-86
2023/09/01 06:45:25;;;;;;;3.20;2.90;;;;;;;;;;5056479;28;20555;-86
2023/09/01 06:47:55;;;;;;;2.73;2.20;;;;;;;;;;5073032;28;20253;-87
2023/09/01 06:50:21;;;;;;;3.17;2.30;;;;;;;;;;5076503;28;20189;-86
2023/09/01 06:52:47;;;;;;;2.20;2.00;;;;;;;;;;5075008;28;20505;-86
2023/09/01 06:55:13;;;;;;;2.57;2.37;;;;;;;;;;5073297;28;20652;-85
2023/09/01 06:57:42;;;;;;;3.93;2.93;;;;;;;;;;5077954;28;20553;-85
2023/09/01 07:00:09;;;;;;;3.87;2.93;;;;;;;;;;5078417;28;20193;-86
2023/09/01 07:02:35;;;;;;;3.37;2.60;;;;;;;;;;5078556;28;20180;-84
2023/09/01 07:05:02;;;;;;;3.50;2.50;;;;;;;;;;5069450;28;20676;-85
2023/09/01 07:07:28;;;;;;;3.50;2.77;;;;;;;;;;5059821;28;20181;-87
2023/09/01 07:09:54;;;;;;;3.13;2.27;;;;;;;;;;5058897;28;20272;-85
2023/09/01 07:12:20;;;;;;;4.03;2.33;;;;;;;;;;5057890;28;20282;-84
2023/09/01 07:14:46;;;;;;;5.20;2.40;;;;;;;;;;5078764;28;20594;-84
2023/09/01 07:17:13;;;;;;;4.57;2.77;;;;;;;;;;5078686;28;20173;-85
2023/09/01 07:19:39;;;;;;;2.87;2.20;;;;;;;;;;5077960;28;20302;-87
2023/09/01 07:22:06;;;;;;;4.00;2.50;;;;;;;;;;5077930;28;20187;-84
2023/09/01 07:24:32;;;;;;;2.43;2.23;;;;;;;;;;5069933;28;20176;-86
2023/09/01 07:26:58;;;;;;;2.43;2.23;;;;;;;;;;5076581;28;20183;-82
2023/09/01 07:29:24;;;;;;;3.13;2.30;;;;;;;;;;5076073;28;20219;-85
2023/09/01 07:31:50;;;;;;;3.53;2.40;;;;;;;;;;5074873;28;20741;-88
2023/09/01 07:34:16;;;;;;;3.77;2.40;;;;;;;;;;5065898;28;20145;-89
2023/09/01 07:36:42;;;;;;;3.63;2.40;;;;;;;;;;5074115;28;20192;-88
2023/09/01 07:39:08;;;;;;;4.33;3.23;;;;;;;;;;5095704;28;20608;-88
2023/09/01 07:41:34;;;;;;;3.00;2.70;;;;;;;;;;5086627;28;20188;-88
2023/09/01 07:44:00;;;;;;;3.43;2.83;;;;;;;;;;5080866;28;20200;-88
2023/09/01 07:46:27;;;;;;;2.73;2.40;;;;;;;;;;5082612;28;20177;-89
2023/09/01 07:48:55;;;;;;;2.20;2.00;;;;;;;;;;5083941;28;20197;-88
2023/09/01 07:51:22;;;;;;;3.37;2.30;;;;;;;;;;5081494;28;20200;-88
2023/09/01 07:53:48;;;;;;;2.47;2.27;;;;;;;;;;5077858;28;20222;-89
2023/09/01 07:56:14;;;;;;;4.37;2.27;;;;;;;;;;5079113;28;20207;-89
2023/09/01 07:58:40;;;;;;;2.90;2.23;;;;;;;;;;5058813;28;20188;-87
2023/09/01 08:01:05;;;;;;;4.33;2.20;;;;;;;;;;5073552;28;20204;-89
2023/09/01 08:03:32;;;;;;;2.70;2.50;;;;;;;;;;5075012;28;20226;-83
2023/09/01 08:05:59;;;;;;;2.97;2.17;;;;;;;;;;5073204;28;20228;-89
2023/09/01 08:08:25;;;;;;;2.70;2.10;;;;;;;;;;5070981;28;20337;-88
2023/09/01 08:10:54;;;;;;;2.80;2.13;;;;;;;;;;5076487;28;20197;-88
2023/09/01 08:13:22;;;;;;;2.20;2.00;;;;;;;;;;5076397;28;20191;-89
2023/09/01 08:15:48;;;;;;;2.93;2.63;;;;;;;;;;5073352;28;20203;-86
2023/09/01 08:18:14;;;;;;;3.57;2.27;;;;;;;;;;5061144;28;20184;-83
2023/09/01 08:20:42;;;;;;;3.07;2.33;;;;;;;;;;5044620;28;20202;-84
2023/09/01 08:23:09;;;;;;;3.87;2.27;;;;;;;;;;5066825;28;20191;-81
2023/09/01 08:25:36;;;;;;;5.10;2.80;;;;;;;;;;5072488;28;20265;-84
2023/09/01 08:28:03;;;;;;;2.10;2.00;;;;;;;;;;5070946;28;20311;-81
2023/09/01 08:30:29;;;;;;;2.47;2.27;;;;;;;;;;5071387;28;20172;-81
2023/09/01 08:32:55;;;;;;;3.03;2.53;;;;;;;;;;5070324;28;20184;-86
2023/09/01 08:35:21;;;;;;;2.87;2.67;;;;;;;;;;5070117;28;20188;-86
2023/09/01 08:37:47;;;;;;;2.37;2.10;;;;;;;;;;5073588;28;20271;-86
2023/09/01 08:40:13;;;;;;;3.53;2.30;;;;;;;;;;5073472;28;20192;-86
2023/09/01 08:42:45;;;;;;;2.20;2.00;;;;;;;;;;5070850;28;20628;-87
2023/09/01 08:45:11;;;;;;;3.20;2.27;;;;;;;;;;5075461;28;20182;-85
2023/09/01 08:47:43;;;;;;;3.80;3.50;;;;;;;;;;5084258;28;20254;-86
2023/09/01 08:50:09;;;;;;;4.00;2.20;;;;;;;;;;5076875;28;20263;-87
2023/09/01 08:52:36;;;;;;;3.13;2.60;;;;;;;;;;5077043;28;20173;-86
2023/09/01 08:55:02;;;;;;;3.15;2.40;;;;;;;;;;5069989;28;20412;-87
2023/09/01 08:57:29;;;;;;;3.57;2.63;;;;;;;;;;5073685;28;20190;-86
2023/09/01 08:59:55;;;;;;;3.37;2.70;;;;;;;;;;5068426;28;20591;-86
2023/09/01 09:02:22;;;;;;;2.90;2.60;;;;;;;;;;5075443;28;20317;-88
2023/09/01 09:04:48;;;;;;;3.87;3.07;;;;;;;;;;5074957;28;20214;-89
2023/09/01 09:07:15;;;;;;;4.73;2.80;;;;;;;;;;5075579;28;20275;-87
2023/09/01 09:09:54;;;;;;;4.10;2.90;;;;;;;;;;5076050;28;20208;-88
2023/09/01 09:12:22;;;;;;;3.20;2.73;;;;;;;;;;5076664;28;20175;-88
2023/09/01 09:14:52;;;;;;;3.27;2.97;;;;;;;;;;5075516;28;20204;-89
2023/09/01 09:17:23;;;;;;;4.37;3.03;;;;;;;;;;5077478;28;20165;-88
2023/09/01 09:19:53;;;;;;;3.73;3.43;;;;;;;;;;5076670;28;20244;-88
2023/09/01 09:22:19;;;;;;;4.27;3.70;;;;;;;;;;5073939;28;20214;-89
2023/09/01 09:24:45;;;;;;;3.40;3.10;;;;;;;;;;5078164;28;20181;-89
2023/09/01 09:27:15;;;;;;;3.50;3.20;;;;;;;;;;5077318;28;20188;-89
2023/09/01 09:29:41;;;;;;;10.37;3.13;;;;;;;;;;5075086;28;20622;-88
2023/09/01 09:32:23;;;;;;;3.50;3.20;;;;;;;;;;5074821;28;20183;-88
2023/09/01 09:35:06;;;;;;;3.47;3.17;;;;;;;;;;5076742;28;20256;-89
2023/09/01 09:37:33;;;;;;;3.60;3.30;;;;;;;;;;5077769;28;20176;-89
2023/09/01 09:40:12;;;;;;;4.93;3.27;;;;;;;;;;5077421;28;20181;-88
2023/09/01 09:42:39;;;;;;;3.37;3.07;;;;;;;;;;5075669;28;20279;-89
2023/09/01 09:45:06;;;;;;;4.00;3.30;;;;;;;;;;5067185;28;20174;-88
2023/09/01 09:47:33;;;;;;;4.17;3.30;;;;;;;;;;5061003;28;20286;-89
2023/09/01 09:50:04;;;;;;;3.50;3.20;;;;;;;;;;5058668;28;20226;-83
2023/09/01 09:52:33;;;;;;;3.33;3.07;;;;;;;;;;5076693;28;20631;-89
2023/09/01 09:55:03;;;;;;;5.00;3.60;;;;;;;;;;5076783;28;20222;-89
2023/09/01 09:57:29;;;;;;;6.47;3.40;;;;;;;;;;5071389;28;20259;-88
2023/09/01 10:00:10;;;;;;;4.03;3.63;;;;;;;;;;5073020;28;20184;-89
2023/09/01 10:02:39;;;;;;;3.43;3.13;;;;;;;;;;5067406;28;20726;-87
2023/09/01 10:05:06;;;;;;;4.67;3.13;;;;;;;;;;5072072;28;20275;-88
2023/09/01 10:07:34;;;;;;;3.50;3.03;;;;;;;;;;5074408;28;20180;-88
2023/09/01 10:10:00;;;;;;;4.73;3.43;;;;;;;;;;5074235;28;20204;-90
2023/09/01 10:12:26;;;;;;;4.13;3.17;;;;;;;;;;5042968;28;20177;-87
2023/09/01 10:14:54;;;;;;;5.20;3.40;;;;;;;;;;5070379;28;20647;-88
2023/09/01 10:17:22;;;;;;;3.63;2.90;;;;;;;;;;5069996;28;20168;-88
2023/09/01 10:19:48;;;;;;;4.20;3.13;;;;;;;;;;5071782;28;20259;-87
2023/09/01 10:22:20;;;;;;;3.20;2.90;;;;;;;;;;5071159;28;20191;-84
2023/09/01 10:25:05;;;;;;;3.57;2.57;;;;;;;;;;5066201;28;20572;-83
2023/09/01 10:27:31;;;;;;;3.10;2.80;;;;;;;;;;5062284;28;20184;-84
2023/09/01 10:29:57;;;;;;;3.60;2.60;;;;;;;;;;5068022;28;20518;-84
2023/09/01 10:32:31;;;;;;;2.63;2.43;;;;;;;;;;5066719;28;20188;-82
2023/09/01 10:34:57;;;;;;;2.83;2.57;;;;;;;;;;5071484;28;20180;-84
2023/09/01 10:37:23;;;;;;;2.73;2.50;;;;;;;;;;5076212;28;20191;-81
2023/09/01 10:39:49;;;;;;;5.30;2.63;;;;;;;;;;5077272;28;20181;-83
2023/09/01 10:42:15;;;;;;;2.70;2.47;;;;;;;;;;5076690;28;20580;-84
2023/09/01 10:44:44;;;;;;;2.30;2.20;;;;;;;;;;5071371;28;20191;-83
2023/09/01 10:47:29;;;;;;;2.30;2.10;;;;;;;;;;5072692;28;20635;-83
2023/09/01 10:49:56;;;;;;;2.67;2.47;;;;;;;;;;5075175;28;20236;-82
2023/09/01 10:52:23;;;;;;;3.47;2.40;;;;;;;;;;5051108;28;20180;-84
2023/09/01 10:55:05;;;;;;;2.33;2.13;;;;;;;;;;5057818;28;20186;-82
2023/09/01 10:57:45;;;;;;;4.10;2.50;;;;;;;;;;5075142;28;20180;-82
2023/09/01 11:00:24;;;;;;;3.53;2.57;;;;;;;;;;5072165;28;20575;-84
2023/09/01 11:02:50;;;;;;;2.23;2.00;;;;;;;;;;5067720;28;20641;-83
2023/09/01 11:05:37;;;;;;;2.50;2.03;;;;;;;;;;5075141;28;20228;-83
2023/09/01 11:08:17;;;;;;;3.83;2.40;;;;;;;;;;5057070;28;20192;-83
2023/09/01 11:10:44;;;;;;;2.53;1.90;;;;;;;;;;5057324;28;20212;-84
2023/09/01 11:13:17;;;;;;;2.40;2.20;;;;;;;;;;5074361;28;20656;-84
2023/09/01 11:15:46;;;;;;;2.07;1.87;;;;;;;;;;5067956;28;20185;-87
2023/09/01 11:18:19;;;;;;;2.60;2.40;;;;;;;;;;5060117;28;20200;-84
2023/09/01 11:20:49;;;;;;;2.30;2.10;;;;;;;;;;5067209;28;20188;-84
2023/09/01 11:23:21;;;;;;;2.77;1.93;;;;;;;;;;5068497;28;20180;-85
2023/09/01 11:26:09;;;;;;;3.27;1.83;;;;;;;;;;5078712;28;20223;-84
2023/09/01 11:28:35;;;;;;;2.40;2.10;;;;;;;;;;5073967;28;20580;-85
2023/09/01 11:31:05;;;;;;;2.30;2.10;;;;;;;;;;5066232;28;20537;-84
2023/09/01 11:33:33;;;;;;;1.97;1.80;;;;;;;;;;5071159;28;20188;-85
2023/09/01 11:36:12;;;;;;;2.57;2.30;;;;;;;;;;5079868;28;20251;-86
2023/09/01 11:38:39;;;;;;;2.13;2.00;;;;;;;;;;5074018;28;20179;-81
2023/09/01 11:41:07;;;;;;;2.60;2.40;;;;;;;;;;5062575;28;20245;-83
2023/09/01 11:43:33;;;;;;;2.30;2.20;;;;;;;;;;5079568;28;20188;-84
2023/09/01 11:45:59;;;;;;;2.20;2.10;;;;;;;;;;5049875;28;20177;-83
2023/09/01 11:48:26;;;;;;;2.30;2.10;;;;;;;;;;5069360;28;20231;-84
2023/09/01 11:50:57;;;;;;;2.50;2.27;;;;;;;;;;5073771;28;20193;-84
2023/09/01 11:53:23;;;;;;;2.67;2.40;;;;;;;;;;5070195;28;20599;-83
2023/09/01 11:55:49;;;;;;;2.30;2.10;;;;;;;;;;5059113;28;20192;-85
2023/09/01 11:58:15;;;;;;;2.57;2.43;;;;;;;;;;5075695;28;20553;-86
2023/09/01 12:00:41;;;;;;;2.97;2.57;;;;;;;;;;5073434;28;20575;-85
2023/09/01 12:03:08;;;;;;;2.23;2.13;;;;;;;;;;5077191;28;20505;-83
2023/09/01 12:05:38;;;;;;;2.90;2.70;;;;;;;;;;5077360;28;20228;-83
2023/09/01 12:08:04;;;;;;;2.87;2.57;;;;;;;;;;5075942;28;20197;-84
2023/09/01 12:10:31;;;;;;;2.33;2.13;;;;;;;;;;5046530;28;20789;-82
2023/09/01 12:13:03;;;;;;;2.53;2.33;;;;;;;;;;5077742;28;20257;-83
2023/09/01 12:15:29;;;;;;;2.73;2.53;;;;;;;;;;5076628;28;20189;-84
2023/09/01 12:17:55;;;;;;;2.73;2.40;;;;;;;;;;5075312;28;20180;-84
2023/09/01 12:20:21;;;;;;;3.23;2.67;;;;;;;;;;5072007;28;20704;-84
2023/09/01 12:22:48;;;;;;;3.60;2.90;;;;;;;;;;5075811;28;20632;-83
2023/09/01 12:25:14;;;;;;;3.00;2.80;;;;;;;;;;5073663;28;20248;-84
2023/09/01 12:27:40;;;;;;;2.97;2.70;;;;;;;;;;5057135;28;20265;-86
2023/09/01 12:30:07;;;;;;;3.37;3.17;;;;;;;;;;5074167;28;20207;-81
2023/09/01 12:32:33;;;;;;;3.40;3.10;;;;;;;;;;5073780;28;20189;-82
2023/09/01 12:34:59;;;;;;;3.97;3.67;;;;;;;;;;5074702;28;20479;-83
2023/09/01 12:37:25;;;;;;;4.07;3.60;;;;;;;;;;5076040;28;20186;-82
2023/09/01 12:39:51;;;;;;;3.20;3.00;;;;;;;;;;5074629;28;20176;-84
2023/09/01 12:42:17;;;;;;;3.83;3.50;;;;;;;;;;5058710;28;20181;-88
2023/09/01 12:44:43;;;;;;;4.17;3.40;;;;;;;;;;5078540;28;20185;-89
2023/09/01 12:47:09;;;;;;;4.40;4.00;;;;;;;;;;5078576;28;20176;-89
2023/09/01 12:49:36;;;;;;;3.80;3.50;;;;;;;;;;5060377;28;20688;-89
2023/09/01 12:52:02;;;;;;;3.80;3.50;;;;;;;;;;5078768;28;20187;-90
2023/09/01 12:54:28;;;;;;;4.73;3.90;;;;;;;;;;5079356;28;20182;-89
2023/09/01 12:56:54;;;;;;;3.80;3.50;;;;;;;;;;5074229;28;20180;-87
2023/09/01 12:59:20;;;;;;;5.07;3.90;;;;;;;;;;5078206;28;20184;-88
2023/09/01 13:01:46;;;;;;;4.00;3.63;;;;;;;;;;5074411;28;20190;-89
2023/09/01 13:04:12;;;;;;;4.10;3.70;;;;;;;;;;5072840;28;20192;-88
2023/09/01 13:06:39;;;;;;;4.43;4.00;;;;;;;;;;5071938;28;20226;-86
2023/09/01 13:09:05;;;;;;;3.73;3.43;;;;;;;;;;5062883;28;20206;-83
2023/09/01 13:11:31;;;;;;;4.07;3.30;;;;;;;;;;5063502;28;20648;-85
2023/09/01 13:13:57;;;;;;;3.80;3.50;;;;;;;;;;5065925;28;20181;-86
2023/09/01 13:16:30;;;;;;;3.60;3.30;;;;;;;;;;5067675;28;20250;-85
2023/09/01 13:18:56;;;;;;;3.80;3.50;;;;;;;;;;5067971;28;20187;-84
2023/09/01 13:21:22;;;;;;;4.20;3.80;;;;;;;;;;5075899;28;20209;-83
2023/09/01 13:23:49;;;;;;;3.70;3.40;;;;;;;;;;5071437;28;20296;-83
2023/09/01 13:26:15;;;;;;;3.70;3.40;;;;;;;;;;5060930;28;20652;-84
2023/09/01 13:28:41;;;;;;;3.90;3.40;;;;;;;;;;5059866;28;20248;-83
2023/09/01 13:31:07;;;;;;;3.63;3.33;;;;;;;;;;5066892;28;20238;-83
2023/09/01 13:33:38;;;;;;;4.93;4.43;;;;;;;;;;5069967;28;20169;-83
2023/09/01 13:36:04;;;;;;;3.03;2.83;;;;;;;;;;5070363;28;20655;-83
2023/09/01 13:38:30;;;;;;;4.37;3.10;;;;;;;;;;5070692;28;21087;-86
2023/09/01 13:40:57;;;;;;;4.10;3.57;;;;;;;;;;5069784;28;20263;-85
2023/09/01 13:43:23;;;;;;;3.30;3.10;;;;;;;;;;5053734;28;20195;-85
2023/09/01 13:45:49;;;;;;;3.20;2.90;;;;;;;;;;5067154;28;20218;-84
2023/09/01 13:48:15;;;;;;;3.30;2.83;;;;;;;;;;5057861;28;20214;-83
2023/09/01 13:50:41;;;;;;;4.67;3.90;;;;;;;;;;5064726;28;20635;-83
2023/09/01 13:53:07;;;;;;;3.90;3.30;;;;;;;;;;5067495;28;20313;-82
2023/09/01 13:55:33;;;;;;;4.50;3.83;;;;;;;;;;5066271;28;20187;-81
2023/09/01 13:57:59;;;;;;;4.33;3.93;;;;;;;;;;5049662;28;20260;-82
2023/09/01 14:00:25;;;;;;;5.00;4.60;;;;;;;;;;5069908;28;20263;-81
2023/09/01 14:02:51;;;;;;;5.57;5.07;;;;;;;;;;5069235;28;20537;-81
2023/09/01 14:05:17;;;;;;;6.67;6.07;;;;;;;;;;5070188;28;20255;-81
2023/09/01 14:07:43;;;;;;;6.37;5.53;;;;;;;;;;5069274;28;20238;-81
2023/09/01 14:10:09;;;;;;;5.43;5.03;;;;;;;;;;5070039;28;20206;-81
2023/09/01 14:12:35;;;;;;;6.13;5.63;;;;;;;;;;5070164;28;20186;-81
2023/09/01 14:15:01;;;;;;;6.63;6.03;;;;;;;;;;5067116;28;20180;-82
2023/09/01 14:17:28;;;;;;;6.70;6.10;;;;;;;;;;5067642;28;20188;-82
2023/09/01 14:19:54;;;;;;;5.43;5.03;;;;;;;;;;5053487;28;20174;-83
2023/09/01 14:22:20;;;;;;;5.30;4.90;;;;;;;;;;5056206;28;20189;-83
2023/09/01 14:24:46;;;;;;;5.03;4.03;;;;;;;;;;5065873;28;20192;-83
2023/09/01 14:27:12;;;;;;;4.03;3.73;;;;;;;;;;5067851;28;20744;-83
2023/09/01 14:29:39;;;;;;;3.77;3.47;;;;;;;;;;5069502;28;20284;-83
2023/09/01 14:32:05;;;;;;;3.43;3.13;;;;;;;;;;5067643;28;20628;-82
2023/09/01 14:34:31;;;;;;;3.30;3.10;;;;;;;;;;5069167;28;20706;-82
2023/09/01 14:36:57;;;;;;;3.00;2.80;;;;;;;;;;5057561;28;20212;-83
2023/09/01 14:39:23;;;;;;;3.10;2.90;;;;;;;;;;5070420;28;20184;-83
2023/09/01 14:41:49;;;;;;;2.70;2.50;;;;;;;;;;5067879;28;20699;-83
2023/09/01 14:44:15;;;;;;;2.87;2.57;;;;;;;;;;5063529;28;20655;-83